BLY817K EGCC-GMMX
Flight info
| Callsign | BLY817K |
|---|---|
| Flight time | N/A |
| Altitude | 40000 |
| Route | KUXEM P17 BEPHE DCT OSSEP DCT OXCUD DCT ELNIF DCT ZESPE DCT KLAKI DCT SALCO DCT BALDA DCT BATAX DCT ALAGU DCT AMSEL UR722 MABAP |
| Aircraft | A332/H-SDE3GHIJ2J3J5M1RVWXY/LB2D1 |
Departure
| Time | N/A |
|---|---|
| Airport | Manchester Airport (EGCC) |
Arrival
| Time | 2026-05-08 10:50 |
|---|---|
| Airport | Marrakesh Menara Airport (GMMX) |
| Time | Latitude | Longitude | Altitude | Speed | Heading |
|---|---|---|---|---|---|
| 2026-05-08 10:04 | 34.96073 | -7.79525 | 39973 ft | 421 kts | 187° |
| 2026-05-08 10:04 | 34.93150 | -7.79280 | 39977 ft | 421 kts | 187° |
| 2026-05-08 10:05 | 34.87302 | -7.78792 | 39976 ft | 421 kts | 187° |
| 2026-05-08 10:05 | 34.81456 | -7.78304 | 39976 ft | 421 kts | 187° |
| 2026-05-08 10:06 | 34.75615 | -7.77817 | 39979 ft | 421 kts | 187° |
| 2026-05-08 10:06 | 34.69808 | -7.77375 | 39978 ft | 420 kts | 188° |
| 2026-05-08 10:07 | 34.63971 | -7.76972 | 39978 ft | 420 kts | 188° |
| 2026-05-08 10:07 | 34.58122 | -7.76572 | 39980 ft | 420 kts | 188° |
| 2026-05-08 10:08 | 34.52280 | -7.76169 | 39977 ft | 420 kts | 188° |
| 2026-05-08 10:08 | 34.46443 | -7.75763 | 39966 ft | 420 kts | 188° |
| 2026-05-08 10:09 | 34.40596 | -7.75357 | 39979 ft | 421 kts | 188° |
| 2026-05-08 10:09 | 34.34747 | -7.74950 | 39980 ft | 421 kts | 188° |
| 2026-05-08 10:10 | 34.28902 | -7.74544 | 39979 ft | 421 kts | 188° |
| 2026-05-08 10:10 | 34.23047 | -7.74139 | 39942 ft | 421 kts | 188° |
| 2026-05-08 10:11 | 34.17195 | -7.73715 | 39980 ft | 422 kts | 187° |
| 2026-05-08 10:11 | 34.11364 | -7.73190 | 39980 ft | 423 kts | 186° |
| 2026-05-08 10:12 | 34.05485 | -7.72629 | 39974 ft | 423 kts | 186° |
| 2026-05-08 10:12 | 33.99616 | -7.72075 | 39974 ft | 423 kts | 187° |
| 2026-05-08 10:13 | 33.93739 | -7.71531 | 39961 ft | 424 kts | 187° |
| 2026-05-08 10:13 | 33.87908 | -7.70985 | 39942 ft | 411 kts | 187° |
| 2026-05-08 10:14 | 33.85076 | -7.70712 | 39678 ft | 406 kts | 187° |
| 2026-05-08 10:14 | 33.82275 | -7.70451 | 39313 ft | 403 kts | 187° |
| 2026-05-08 10:14 | 33.79489 | -7.70197 | 39000 ft | 400 kts | 188° |
| 2026-05-08 10:14 | 33.76730 | -7.69945 | 38697 ft | 396 kts | 188° |
| 2026-05-08 10:15 | 33.73996 | -7.69696 | 38327 ft | 392 kts | 188° |
| 2026-05-08 10:15 | 33.71288 | -7.69447 | 37951 ft | 387 kts | 188° |
| 2026-05-08 10:15 | 33.68618 | -7.69201 | 37705 ft | 382 kts | 188° |
| 2026-05-08 10:15 | 33.65983 | -7.68958 | 37415 ft | 379 kts | 188° |
| 2026-05-08 10:16 | 33.63351 | -7.68722 | 37113 ft | 379 kts | 188° |
| 2026-05-08 10:16 | 33.60744 | -7.68492 | 36803 ft | 380 kts | 188° |
| 2026-05-08 10:16 | 33.58100 | -7.68258 | 36509 ft | 381 kts | 188° |
| 2026-05-08 10:16 | 33.55466 | -7.68117 | 36206 ft | 374 kts | 193° |
| 2026-05-08 10:17 | 33.52922 | -7.68386 | 35890 ft | 362 kts | 201° |
| 2026-05-08 10:17 | 33.50522 | -7.69114 | 35588 ft | 351 kts | 210° |
| 2026-05-08 10:17 | 33.48306 | -7.70257 | 35291 ft | 344 kts | 215° |
| 2026-05-08 10:17 | 33.46174 | -7.71563 | 35006 ft | 343 kts | 216° |
| 2026-05-08 10:18 | 33.44083 | -7.72935 | 34645 ft | 343 kts | 218° |
| 2026-05-08 10:18 | 33.42000 | -7.74344 | 34215 ft | 344 kts | 218° |
| 2026-05-08 10:18 | 33.39916 | -7.75762 | 33767 ft | 345 kts | 218° |
| 2026-05-08 10:18 | 33.37820 | -7.77183 | 33276 ft | 346 kts | 218° |
| 2026-05-08 10:19 | 33.35742 | -7.78581 | 32830 ft | 348 kts | 217° |
| 2026-05-08 10:19 | 33.33622 | -7.79997 | 32367 ft | 350 kts | 217° |
| 2026-05-08 10:19 | 33.31480 | -7.81420 | 31873 ft | 353 kts | 217° |
| 2026-05-08 10:20 | 33.27170 | -7.84269 | 30862 ft | 354 kts | 217° |
| 2026-05-08 10:20 | 33.25023 | -7.85682 | 30493 ft | 351 kts | 217° |
| 2026-05-08 10:20 | 33.22892 | -7.87083 | 30165 ft | 349 kts | 217° |
| 2026-05-08 10:20 | 33.20770 | -7.88480 | 29783 ft | 348 kts | 217° |
| 2026-05-08 10:21 | 33.18656 | -7.89872 | 29401 ft | 346 kts | 217° |
| 2026-05-08 10:21 | 33.16551 | -7.91260 | 29062 ft | 345 kts | 217° |
| 2026-05-08 10:21 | 33.14450 | -7.92645 | 28705 ft | 345 kts | 217° |
| 2026-05-08 10:21 | 33.12351 | -7.94029 | 28345 ft | 344 kts | 216° |
| 2026-05-08 10:22 | 33.10258 | -7.95407 | 27987 ft | 344 kts | 216° |
| 2026-05-08 10:22 | 33.08162 | -7.96786 | 27634 ft | 343 kts | 216° |
| 2026-05-08 10:22 | 33.06077 | -7.98158 | 27284 ft | 343 kts | 216° |
| 2026-05-08 10:22 | 33.03985 | -7.99532 | 26931 ft | 342 kts | 216° |
| 2026-05-08 10:23 | 33.01903 | -8.00899 | 26574 ft | 342 kts | 216° |
| 2026-05-08 10:23 | 32.99822 | -8.02265 | 26199 ft | 341 kts | 215° |
| 2026-05-08 10:23 | 32.97744 | -8.03628 | 25835 ft | 341 kts | 215° |
| 2026-05-08 10:23 | 32.95662 | -8.04987 | 25484 ft | 341 kts | 214° |
| 2026-05-08 10:24 | 32.93492 | -8.06102 | 25115 ft | 347 kts | 205° |
| 2026-05-08 10:24 | 32.91132 | -8.06816 | 24743 ft | 352 kts | 199° |
| 2026-05-08 10:24 | 32.88715 | -8.07347 | 24346 ft | 354 kts | 197° |
| 2026-05-08 10:24 | 32.86269 | -8.07783 | 23985 ft | 355 kts | 195° |
| 2026-05-08 10:25 | 32.83826 | -8.08170 | 23613 ft | 355 kts | 194° |
| 2026-05-08 10:25 | 32.81341 | -8.08547 | 23196 ft | 354 kts | 194° |
| 2026-05-08 10:25 | 32.78906 | -8.08917 | 22812 ft | 352 kts | 194° |
| 2026-05-08 10:25 | 32.76514 | -8.09288 | 22449 ft | 350 kts | 194° |
| 2026-05-08 10:26 | 32.74112 | -8.09670 | 22083 ft | 348 kts | 194° |
| 2026-05-08 10:26 | 32.71719 | -8.10057 | 21714 ft | 346 kts | 194° |
| 2026-05-08 10:26 | 32.69343 | -8.10445 | 21343 ft | 344 kts | 194° |
| 2026-05-08 10:26 | 32.66971 | -8.10834 | 20975 ft | 342 kts | 194° |
| 2026-05-08 10:27 | 32.64621 | -8.11220 | 20618 ft | 340 kts | 194° |
| 2026-05-08 10:27 | 32.62278 | -8.11604 | 20236 ft | 338 kts | 194° |
| 2026-05-08 10:27 | 32.59949 | -8.11985 | 19899 ft | 338 kts | 194° |
| 2026-05-08 10:27 | 32.57624 | -8.12366 | 19548 ft | 337 kts | 194° |
| 2026-05-08 10:28 | 32.55302 | -8.12745 | 19175 ft | 335 kts | 193° |
| 2026-05-08 10:28 | 32.52999 | -8.13121 | 18828 ft | 334 kts | 193° |
| 2026-05-08 10:28 | 32.50708 | -8.13495 | 18476 ft | 332 kts | 193° |
| 2026-05-08 10:28 | 32.48424 | -8.13866 | 18104 ft | 330 kts | 193° |
| 2026-05-08 10:29 | 32.46150 | -8.14237 | 17733 ft | 329 kts | 193° |
| 2026-05-08 10:29 | 32.43910 | -8.14602 | 17381 ft | 328 kts | 193° |
| 2026-05-08 10:29 | 32.41649 | -8.14970 | 17026 ft | 327 kts | 193° |
| 2026-05-08 10:29 | 32.39397 | -8.15337 | 16675 ft | 326 kts | 193° |
| 2026-05-08 10:30 | 32.37153 | -8.15702 | 16321 ft | 325 kts | 193° |
| 2026-05-08 10:30 | 32.34911 | -8.16067 | 15955 ft | 324 kts | 192° |
| 2026-05-08 10:30 | 32.32675 | -8.16431 | 15615 ft | 325 kts | 192° |
| 2026-05-08 10:30 | 32.30438 | -8.16794 | 15258 ft | 324 kts | 192° |
| 2026-05-08 10:31 | 32.28205 | -8.17156 | 14907 ft | 323 kts | 192° |
| 2026-05-08 10:31 | 32.25976 | -8.17518 | 14546 ft | 323 kts | 192° |
| 2026-05-08 10:31 | 32.23752 | -8.17878 | 14199 ft | 322 kts | 192° |
| 2026-05-08 10:31 | 32.21534 | -8.18238 | 13849 ft | 321 kts | 192° |
| 2026-05-08 10:32 | 32.19320 | -8.18596 | 13471 ft | 321 kts | 192° |
| 2026-05-08 10:32 | 32.17112 | -8.18954 | 13118 ft | 319 kts | 192° |
| 2026-05-08 10:32 | 32.14919 | -8.19304 | 12772 ft | 317 kts | 190° |
| 2026-05-08 10:32 | 32.12709 | -8.19345 | 12423 ft | 321 kts | 176° |
| 2026-05-08 10:33 | 32.10727 | -8.18693 | 12089 ft | 325 kts | 161° |
| 2026-05-08 10:33 | 32.08685 | -8.17554 | 11730 ft | 324 kts | 157° |
| 2026-05-08 10:33 | 32.06687 | -8.16337 | 11375 ft | 323 kts | 156° |
| 2026-05-08 10:33 | 32.04695 | -8.15117 | 11031 ft | 321 kts | 156° |
| 2026-05-08 10:34 | 32.02724 | -8.13920 | 10770 ft | 313 kts | 156° |
| 2026-05-08 10:34 | 32.00838 | -8.12776 | 10667 ft | 298 kts | 156° |
| 2026-05-08 10:34 | 31.99036 | -8.11688 | 10544 ft | 286 kts | 156° |
| 2026-05-08 10:34 | 31.97288 | -8.10637 | 10412 ft | 278 kts | 156° |
| 2026-05-08 10:35 | 31.95578 | -8.09613 | 10149 ft | 275 kts | 156° |
| 2026-05-08 10:35 | 31.93883 | -8.08601 | 9890 ft | 272 kts | 156° |
| 2026-05-08 10:35 | 31.92223 | -8.07609 | 9645 ft | 270 kts | 156° |
| 2026-05-08 10:35 | 31.90528 | -8.06599 | 9361 ft | 278 kts | 156° |
| 2026-05-08 10:36 | 31.88782 | -8.05559 | 8928 ft | 283 kts | 156° |
| 2026-05-08 10:36 | 31.87023 | -8.04510 | 8497 ft | 282 kts | 156° |
| 2026-05-08 10:36 | 31.85297 | -8.03478 | 8291 ft | 274 kts | 156° |
| 2026-05-08 10:36 | 31.83629 | -8.02479 | 8154 ft | 263 kts | 156° |
| 2026-05-08 10:37 | 31.82027 | -8.01522 | 8016 ft | 254 kts | 156° |
| 2026-05-08 10:37 | 31.80530 | -8.00490 | 7913 ft | 246 kts | 145° |
| 2026-05-08 10:37 | 31.79333 | -7.99090 | 7785 ft | 240 kts | 132° |
| 2026-05-08 10:37 | 31.78313 | -7.97573 | 7645 ft | 234 kts | 130° |
| 2026-05-08 10:38 | 31.77649 | -7.96548 | 7482 ft | 233 kts | 129° |
| 2026-05-08 10:38 | 31.76672 | -7.95035 | 7231 ft | 232 kts | 129° |
| 2026-05-08 10:38 | 31.75709 | -7.93548 | 7016 ft | 230 kts | 129° |
| 2026-05-08 10:38 | 31.74753 | -7.92075 | 6943 ft | 225 kts | 129° |
| 2026-05-08 10:39 | 31.73800 | -7.90613 | 6944 ft | 225 kts | 130° |
| 2026-05-08 10:39 | 31.72847 | -7.89153 | 6940 ft | 225 kts | 130° |
| 2026-05-08 10:39 | 31.71896 | -7.87696 | 6950 ft | 225 kts | 130° |
| 2026-05-08 10:39 | 31.70943 | -7.86244 | 6949 ft | 224 kts | 130° |
| 2026-05-08 10:40 | 31.69991 | -7.84790 | 6947 ft | 224 kts | 130° |
| 2026-05-08 10:40 | 31.69039 | -7.83335 | 6945 ft | 224 kts | 130° |
| 2026-05-08 10:40 | 31.68106 | -7.81909 | 6945 ft | 225 kts | 130° |
| 2026-05-08 10:40 | 31.67169 | -7.80464 | 6943 ft | 225 kts | 127° |
| 2026-05-08 10:41 | 31.66497 | -7.78794 | 6915 ft | 228 kts | 106° |
| 2026-05-08 10:41 | 31.66234 | -7.76967 | 6682 ft | 228 kts | 98° |
| 2026-05-08 10:41 | 31.66076 | -7.75111 | 6448 ft | 228 kts | 97° |
| 2026-05-08 10:41 | 31.65928 | -7.73258 | 6204 ft | 228 kts | 97° |
| 2026-05-08 10:42 | 31.65777 | -7.71406 | 5944 ft | 228 kts | 96° |
| 2026-05-08 10:42 | 31.65892 | -7.69562 | 5689 ft | 229 kts | 72° |
| 2026-05-08 10:42 | 31.66757 | -7.68034 | 5502 ft | 225 kts | 37° |
| 2026-05-08 10:42 | 31.68181 | -7.67393 | 5471 ft | 221 kts | 359° |
| 2026-05-08 10:43 | 31.69632 | -7.67873 | 5482 ft | 219 kts | 324° |
| 2026-05-08 10:43 | 31.70604 | -7.69195 | 5479 ft | 215 kts | 292° |
| 2026-05-08 10:43 | 31.70713 | -7.70891 | 5478 ft | 211 kts | 253° |
| 2026-05-08 10:43 | 31.70165 | -7.72480 | 5430 ft | 210 kts | 243° |
| 2026-05-08 10:44 | 31.69505 | -7.74026 | 5293 ft | 213 kts | 243° |
| 2026-05-08 10:44 | 31.68847 | -7.75586 | 5184 ft | 213 kts | 244° |
| 2026-05-08 10:44 | 31.68212 | -7.77147 | 5049 ft | 211 kts | 244° |
| 2026-05-08 10:44 | 31.67592 | -7.78709 | 4827 ft | 212 kts | 245° |
| 2026-05-08 10:45 | 31.67057 | -7.80323 | 4493 ft | 212 kts | 259° |
| 2026-05-08 10:45 | 31.66799 | -7.82055 | 4334 ft | 230 kts | 252° |
| 2026-05-08 10:45 | 31.65827 | -7.83611 | 4504 ft | 237 kts | 214° |
| 2026-05-08 10:45 | 31.64319 | -7.84033 | 4578 ft | 220 kts | 170° |
| 2026-05-08 10:46 | 31.62839 | -7.83692 | 4506 ft | 215 kts | 169° |
| 2026-05-08 10:46 | 31.61400 | -7.83391 | 4353 ft | 206 kts | 176° |
| 2026-05-08 10:46 | 31.60066 | -7.83837 | 3941 ft | 207 kts | 218° |
| 2026-05-08 10:46 | 31.59241 | -7.85209 | 3567 ft | 206 kts | 252° |
| 2026-05-08 10:47 | 31.59125 | -7.86853 | 3275 ft | 206 kts | 273° |
| 2026-05-08 10:47 | 31.59273 | -7.88526 | 3197 ft | 207 kts | 277° |
| 2026-05-08 10:47 | 31.59449 | -7.90177 | 3186 ft | 191 kts | 277° |
| 2026-05-08 10:47 | 31.59601 | -7.91649 | 3184 ft | 173 kts | 277° |
| 2026-05-08 10:48 | 31.59734 | -7.93000 | 3100 ft | 163 kts | 276° |
| 2026-05-08 10:48 | 31.59854 | -7.94266 | 2901 ft | 149 kts | 276° |
| 2026-05-08 10:48 | 31.59960 | -7.95417 | 2668 ft | 139 kts | 276° |
| 2026-05-08 10:48 | 31.60058 | -7.96504 | 2467 ft | 129 kts | 276° |
| 2026-05-08 10:49 | 31.60149 | -7.97526 | 2317 ft | 124 kts | 276° |
| 2026-05-08 10:49 | 31.60238 | -7.98536 | 2187 ft | 125 kts | 277° |
| 2026-05-08 10:49 | 31.60329 | -7.99554 | 2061 ft | 126 kts | 276° |
| 2026-05-08 10:49 | 31.60421 | -8.00578 | 1869 ft | 126 kts | 277° |
| 2026-05-08 10:50 | 31.60507 | -8.01603 | 1653 ft | 126 kts | 277° |
| 2026-05-08 10:50 | 31.60601 | -8.02636 | 1534 ft | 122 kts | 275° |
| 2026-05-08 10:50 | 31.60670 | -8.03401 | 1524 ft | 57 kts | 276° |
| 2026-05-08 10:50 | 31.60693 | -8.03672 | 1525 ft | 30 kts | 276° |
| 2026-05-08 10:51 | 31.60716 | -8.03923 | 1518 ft | 32 kts | 276° |
| 2026-05-08 10:51 | 31.60741 | -8.04183 | 1518 ft | 27 kts | 275° |
| 2026-05-08 10:51 | 31.60752 | -8.04327 | 1519 ft | 14 kts | 271° |
| 2026-05-08 10:51 | 31.60717 | -8.04383 | 1518 ft | 9 kts | 196° |
| 2026-05-08 10:52 | 31.60644 | -8.04396 | 1519 ft | 12 kts | 186° |
| 2026-05-08 10:52 | 31.60584 | -8.04357 | 1519 ft | 11 kts | 115° |
| 2026-05-08 10:52 | 31.60575 | -8.04265 | 1520 ft | 12 kts | 92° |
| 2026-05-08 10:52 | 31.60567 | -8.04158 | 1518 ft | 14 kts | 97° |
| 2026-05-08 10:53 | 31.60553 | -8.04036 | 1518 ft | 16 kts | 97° |
| 2026-05-08 10:53 | 31.60541 | -8.03901 | 1521 ft | 17 kts | 92° |
| 2026-05-08 10:53 | 31.60528 | -8.03758 | 1523 ft | 18 kts | 95° |
| 2026-05-08 10:53 | 31.60514 | -8.03604 | 1522 ft | 20 kts | 96° |
| 2026-05-08 10:54 | 31.60500 | -8.03445 | 1524 ft | 19 kts | 95° |
| 2026-05-08 10:54 | 31.60487 | -8.03286 | 1529 ft | 20 kts | 95° |
| 2026-05-08 10:54 | 31.60476 | -8.03147 | 1530 ft | 11 kts | 95° |
| 2026-05-08 10:54 | 31.60468 | -8.03051 | 1531 ft | 13 kts | 96° |
| 2026-05-08 10:55 | 31.60458 | -8.02941 | 1536 ft | 15 kts | 96° |
| 2026-05-08 10:55 | 31.60451 | -8.02854 | 1532 ft | 0 kts | 96° |
| 2026-05-08 10:56 | 31.60446 | -8.02812 | 1536 ft | 10 kts | 97° |
| 2026-05-08 10:56 | 31.60437 | -8.02726 | 1533 ft | 12 kts | 96° |
| 2026-05-08 10:56 | 31.60428 | -8.02623 | 1533 ft | 14 kts | 95° |
| 2026-05-08 10:56 | 31.60418 | -8.02504 | 1536 ft | 16 kts | 95° |
| 2026-05-08 10:57 | 31.60407 | -8.02370 | 1539 ft | 18 kts | 96° |
| 2026-05-08 10:57 | 31.60393 | -8.02228 | 1541 ft | 12 kts | 98° |
| 2026-05-08 10:57 | 31.60260 | -8.02200 | 1539 ft | 8 kts | 186° |
| 2026-05-08 10:58 | 31.60203 | -8.02220 | 1538 ft | 8 kts | 230° |
| 2026-05-08 10:58 | 31.60198 | -8.02283 | 1537 ft | 6 kts | 275° |
| 2026-05-08 10:58 | 31.60201 | -8.02312 | 1537 ft | 0 kts | 276° |